sensor_id;sensor_type;location;lat;lon;timestamp;pressure;altitude;pressure_sealevel;temperature;humidity
75852;BME280;64500;52.632;20.656;2022-11-03T00:01:45;100929.98;;;9.18;77.35
75852;BME280;64500;52.632;20.656;2022-11-03T00:04:14;100933.93;;;9.11;77.02
75852;BME280;64500;52.632;20.656;2022-11-03T00:06:43;100933.67;;;9.00;77.21
75852;BME280;64500;52.632;20.656;2022-11-03T00:09:12;100930.73;;;8.94;77.11
75852;BME280;64500;52.632;20.656;2022-11-03T00:11:41;100928.44;;;8.93;77.30
75852;BME280;64500;52.632;20.656;2022-11-03T00:14:09;100925.63;;;8.92;77.50
75852;BME280;64500;52.632;20.656;2022-11-03T00:16:38;100929.36;;;8.89;77.24
75852;BME280;64500;52.632;20.656;2022-11-03T00:19:06;100925.66;;;8.88;77.37
75852;BME280;64500;52.632;20.656;2022-11-03T00:21:34;100925.16;;;8.85;77.31
75852;BME280;64500;52.632;20.656;2022-11-03T00:24:01;100932.23;;;8.84;77.25
75852;BME280;64500;52.632;20.656;2022-11-03T00:26:30;100931.34;;;8.83;77.25
75852;BME280;64500;52.632;20.656;2022-11-03T00:29:00;100930.13;;;8.81;77.40
75852;BME280;64500;52.632;20.656;2022-11-03T00:31:32;100929.77;;;8.81;77.40
75852;BME280;64500;52.632;20.656;2022-11-03T00:34:00;100936.33;;;8.77;77.34
75852;BME280;64500;52.632;20.656;2022-11-03T00:36:33;100936.16;;;8.76;77.42
75852;BME280;64500;52.632;20.656;2022-11-03T00:39:00;100936.88;;;8.76;77.46
75852;BME280;64500;52.632;20.656;2022-11-03T00:41:27;100940.41;;;8.75;77.22
75852;BME280;64500;52.632;20.656;2022-11-03T00:43:54;100941.47;;;8.73;77.39
75852;BME280;64500;52.632;20.656;2022-11-03T00:46:24;100944.48;;;8.71;77.37
75852;BME280;64500;52.632;20.656;2022-11-03T00:48:51;100940.60;;;8.72;77.18
75852;BME280;64500;52.632;20.656;2022-11-03T00:51:20;100940.11;;;8.66;76.69
75852;BME280;64500;52.632;20.656;2022-11-03T00:53:50;100943.52;;;8.58;76.97
75852;BME280;64500;52.632;20.656;2022-11-03T00:56:41;100946.34;;;8.58;76.96
75852;BME280;64500;52.632;20.656;2022-11-03T00:59:09;100947.40;;;8.57;77.34
75852;BME280;64500;52.632;20.656;2022-11-03T01:01:38;100947.58;;;8.58;77.24
75852;BME280;64500;52.632;20.656;2022-11-03T01:04:08;100953.23;;;8.57;76.98
75852;BME280;64500;52.632;20.656;2022-11-03T01:06:56;100955.00;;;8.56;76.96
75852;BME280;64500;52.632;20.656;2022-11-03T01:09:41;100955.20;;;8.52;77.00
75852;BME280;64500;52.632;20.656;2022-11-03T01:17:20;100958.60;;;8.40;77.19
75852;BME280;64500;52.632;20.656;2022-11-03T01:19:49;100964.05;;;8.38;76.79
75852;BME280;64500;52.632;20.656;2022-11-03T01:22:17;100960.75;;;8.32;76.82
75852;BME280;64500;52.632;20.656;2022-11-03T01:24:44;100962.36;;;8.26;76.66
75852;BME280;64500;52.632;20.656;2022-11-03T01:27:13;100964.50;;;8.22;76.72
75852;BME280;64500;52.632;20.656;2022-11-03T01:29:40;100964.67;;;8.22;76.99
75852;BME280;64500;52.632;20.656;2022-11-03T01:32:08;100968.89;;;8.24;76.99
75852;BME280;64500;52.632;20.656;2022-11-03T01:34:35;100967.14;;;8.22;76.86
75852;BME280;64500;52.632;20.656;2022-11-03T01:37:02;100968.23;;;8.14;76.46
75852;BME280;64500;52.632;20.656;2022-11-03T01:39:30;100967.20;;;8.08;76.50
75852;BME280;64500;52.632;20.656;2022-11-03T01:41:57;100972.48;;;8.08;76.75
75852;BME280;64500;52.632;20.656;2022-11-03T01:44:32;100967.55;;;8.10;76.80
75852;BME280;64500;52.632;20.656;2022-11-03T01:47:20;100964.55;;;8.08;76.52
75852;BME280;64500;52.632;20.656;2022-11-03T01:49:53;100964.41;;;8.01;76.66
75852;BME280;64500;52.632;20.656;2022-11-03T01:52:26;100966.19;;;7.99;76.67
75852;BME280;64500;52.632;20.656;2022-11-03T01:54:59;100963.22;;;7.97;76.77
75852;BME280;64500;52.632;20.656;2022-11-03T02:00:29;100963.90;;;7.99;76.58
75852;BME280;64500;52.632;20.656;2022-11-03T02:02:55;100964.07;;;8.01;76.79
75852;BME280;64500;52.632;20.656;2022-11-03T02:05:24;100964.94;;;8.04;76.53
75852;BME280;64500;52.632;20.656;2022-11-03T02:07:57;100964.59;;;8.00;76.39
75852;BME280;64500;52.632;20.656;2022-11-03T02:10:27;100963.92;;;7.94;76.50
75852;BME280;64500;52.632;20.656;2022-11-03T02:12:54;100966.94;;;7.91;76.42
75852;BME280;64500;52.632;20.656;2022-11-03T02:15:22;100966.41;;;7.90;76.50
75852;BME280;64500;52.632;20.656;2022-11-03T02:17:51;100964.65;;;7.88;76.44
75852;BME280;64500;52.632;20.656;2022-11-03T02:20:23;100966.43;;;7.82;76.14
75852;BME280;64500;52.632;20.656;2022-11-03T02:25:51;100964.38;;;7.70;76.47
75852;BME280;64500;52.632;20.656;2022-11-03T02:28:22;100968.06;;;7.68;76.56
75852;BME280;64500;52.632;20.656;2022-11-03T02:34:03;100965.77;;;7.68;76.72
75852;BME280;64500;52.632;20.656;2022-11-03T02:37:01;100962.95;;;7.69;76.56
75852;BME280;64500;52.632;20.656;2022-11-03T02:39:34;100967.17;;;7.69;76.56
75852;BME280;64500;52.632;20.656;2022-11-03T02:42:03;100967.35;;;7.67;76.51
75852;BME280;64500;52.632;20.656;2022-11-03T02:44:31;100967.72;;;7.66;76.60
75852;BME280;64500;52.632;20.656;2022-11-03T02:47:02;100970.53;;;7.67;76.46
75852;BME280;64500;52.632;20.656;2022-11-03T02:49:44;100976.34;;;7.65;76.41
75852;BME280;64500;52.632;20.656;2022-11-03T02:52:43;100976.17;;;7.66;76.51
75852;BME280;64500;52.632;20.656;2022-11-03T02:55:19;100979.14;;;7.71;76.90
75852;BME280;64500;52.632;20.656;2022-11-03T02:57:54;100978.80;;;7.66;75.99
75852;BME280;64500;52.632;20.656;2022-11-03T03:00:23;100979.88;;;7.57;76.15
75852;BME280;64500;52.632;20.656;2022-11-03T03:02:56;100984.98;;;7.57;76.20
75852;BME280;64500;52.632;20.656;2022-11-03T03:05:28;100982.69;;;7.60;76.42
75852;BME280;64500;52.632;20.656;2022-11-03T03:08:01;100984.47;;;7.53;75.95
75852;BME280;64500;52.632;20.656;2022-11-03T03:10:32;100986.75;;;7.53;75.96
75852;BME280;64500;52.632;20.656;2022-11-03T03:13:02;100988.88;;;7.46;76.11
75852;BME280;64500;52.632;20.656;2022-11-03T03:15:44;100985.70;;;7.48;76.30
75852;BME280;64500;52.632;20.656;2022-11-03T03:21:06;100998.54;;;7.52;76.30
75852;BME280;64500;52.632;20.656;2022-11-03T03:23:43;100995.90;;;7.55;76.30
75852;BME280;64500;52.632;20.656;2022-11-03T03:26:32;100998.71;;;7.55;76.23
75852;BME280;64500;52.632;20.656;2022-11-03T03:29:08;101000.64;;;7.52;75.94
75852;BME280;64500;52.632;20.656;2022-11-03T03:31:39;101001.54;;;7.46;75.81
75852;BME280;64500;52.632;20.656;2022-11-03T03:34:09;101005.94;;;7.40;75.54
75852;BME280;64500;52.632;20.656;2022-11-03T03:36:38;101006.30;;;7.29;75.33
75852;BME280;64500;52.632;20.656;2022-11-03T03:39:06;101011.07;;;7.16;75.15
75852;BME280;64500;52.632;20.656;2022-11-03T03:41:36;101017.23;;;7.04;75.08
75852;BME280;64500;52.632;20.656;2022-11-03T03:44:05;101019.84;;;6.99;75.67
75852;BME280;64500;52.632;20.656;2022-11-03T03:46:37;101016.51;;;6.97;75.48
75852;BME280;64500;52.632;20.656;2022-11-03T03:49:05;101020.38;;;7.00;75.94
75852;BME280;64500;52.632;20.656;2022-11-03T03:51:33;101019.84;;;7.09;76.40
75852;BME280;64500;52.632;20.656;2022-11-03T03:54:01;101019.65;;;7.08;76.20
75852;BME280;64500;52.632;20.656;2022-11-03T03:56:35;101020.73;;;7.11;76.15
75852;BME280;64500;52.632;20.656;2022-11-03T03:59:04;101020.54;;;7.15;76.05
75852;BME280;64500;52.632;20.656;2022-11-03T04:01:30;101017.04;;;7.07;75.67
75852;BME280;64500;52.632;20.656;2022-11-03T04:03:57;101023.20;;;7.06;76.07
75852;BME280;64500;52.632;20.656;2022-11-03T04:06:24;101017.57;;;7.07;76.40
75852;BME280;64500;52.632;20.656;2022-11-03T04:08:51;101017.21;;;7.12;76.13
75852;BME280;64500;52.632;20.656;2022-11-03T04:11:18;101020.02;;;7.09;75.95
75852;BME280;64500;52.632;20.656;2022-11-03T04:14:03;101020.54;;;7.07;76.03
75852;BME280;64500;52.632;20.656;2022-11-03T04:16:49;101024.58;;;6.86;74.99
75852;BME280;64500;52.632;20.656;2022-11-03T04:19:34;101025.05;;;6.57;74.64
75852;BME280;64500;52.632;20.656;2022-11-03T04:22:20;101027.77;;;6.27;74.66
75852;BME280;64500;52.632;20.656;2022-11-03T04:24:49;101027.33;;;6.05;74.88
75852;BME280;64500;52.632;20.656;2022-11-03T04:27:32;101028.66;;;5.94;75.47
75852;BME280;64500;52.632;20.656;2022-11-03T04:30:13;101029.48;;;5.89;75.46
75852;BME280;64500;52.632;20.656;2022-11-03T04:32:44;101029.91;;;5.69;75.06
75852;BME280;64500;52.632;20.656;2022-11-03T04:35:17;101034.15;;;5.49;75.15
75852;BME280;64500;52.632;20.656;2022-11-03T04:37:50;101034.95;;;5.37;75.78
75852;BME280;64500;52.632;20.656;2022-11-03T04:40:17;101031.48;;;5.41;76.35
75852;BME280;64500;52.632;20.656;2022-11-03T04:42:44;101028.19;;;5.47;76.31
75852;BME280;64500;52.632;20.656;2022-11-03T04:45:29;101029.95;;;5.48;76.43
75852;BME280;64500;52.632;20.656;2022-11-03T04:47:59;101021.83;;;5.40;75.61
75852;BME280;64500;52.632;20.656;2022-11-03T04:50:27;101026.60;;;5.23;75.86
75852;BME280;64500;52.632;20.656;2022-11-03T04:52:55;101023.89;;;5.13;76.07
75852;BME280;64500;52.632;20.656;2022-11-03T04:55:23;101025.80;;;5.10;76.22
75852;BME280;64500;52.632;20.656;2022-11-03T04:57:57;101024.89;;;5.07;76.51
75852;BME280;64500;52.632;20.656;2022-11-03T05:00:24;101023.69;;;4.90;76.44
75852;BME280;64500;52.632;20.656;2022-11-03T05:02:51;101032.11;;;4.73;76.37
75852;BME280;64500;52.632;20.656;2022-11-03T05:05:21;101034.48;;;4.64;76.90
75852;BME280;64500;52.632;20.656;2022-11-03T05:07:51;101034.91;;;4.73;77.32
75852;BME280;64500;52.632;20.656;2022-11-03T05:10:25;101037.44;;;4.81;77.06
75852;BME280;64500;52.632;20.656;2022-11-03T05:12:56;101041.14;;;4.83;77.09
75852;BME280;64500;52.632;20.656;2022-11-03T05:15:42;101041.58;;;4.92;77.26
75852;BME280;64500;52.632;20.656;2022-11-03T05:18:20;101038.06;;;4.92;76.97
75852;BME280;64500;52.632;20.656;2022-11-03T05:20:55;101038.06;;;4.92;76.86
75852;BME280;64500;52.632;20.656;2022-11-03T05:23:22;101041.88;;;4.87;76.67
75852;BME280;64500;52.632;20.656;2022-11-03T05:25:52;101040.40;;;4.80;76.64
75852;BME280;64500;52.632;20.656;2022-11-03T05:30:53;101044.20;;;4.58;76.46
75852;BME280;64500;52.632;20.656;2022-11-03T05:33:28;101043.76;;;4.47;76.55
75852;BME280;64500;52.632;20.656;2022-11-03T05:35:57;101043.33;;;4.43;77.11
75852;BME280;64500;52.632;20.656;2022-11-03T05:38:30;101043.42;;;4.50;77.52
75852;BME280;64500;52.632;20.656;2022-11-03T05:40:57;101044.53;;;4.55;77.30
75852;BME280;64500;52.632;20.656;2022-11-03T05:43:25;101043.80;;;4.54;77.45
75852;BME280;64500;52.632;20.656;2022-11-03T05:45:59;101045.05;;;4.39;77.10
75852;BME280;64500;52.632;20.656;2022-11-03T05:48:33;101047.69;;;4.26;77.17
75852;BME280;64500;52.632;20.656;2022-11-03T05:51:18;101054.73;;;4.29;77.61
75852;BME280;64500;52.632;20.656;2022-11-03T05:53:50;101052.23;;;4.26;77.32
75852;BME280;64500;52.632;20.656;2022-11-03T05:56:21;101055.66;;;4.19;77.64
75852;BME280;64500;52.632;20.656;2022-11-03T05:58:51;101056.23;;;4.23;77.85
75852;BME280;64500;52.632;20.656;2022-11-03T06:01:28;101055.66;;;4.19;77.81
75852;BME280;64500;52.632;20.656;2022-11-03T06:03:58;101055.23;;;4.12;77.81
75852;BME280;64500;52.632;20.656;2022-11-03T06:06:37;101058.85;;;4.09;78.28
75852;BME280;64500;52.632;20.656;2022-11-03T06:09:19;101062.45;;;4.17;78.54
75852;BME280;64500;52.632;20.656;2022-11-03T06:11:48;101061.96;;;4.33;79.16
75852;BME280;64500;52.632;20.656;2022-11-03T06:14:19;101069.65;;;4.48;79.26
75852;BME280;64500;52.632;20.656;2022-11-03T06:16:48;101071.63;;;4.67;79.76
75852;BME280;64500;52.632;20.656;2022-11-03T06:19:30;101068.89;;;4.90;79.87
75852;BME280;64500;52.632;20.656;2022-11-03T06:22:03;101070.71;;;5.17;80.18
75852;BME280;64500;52.632;20.656;2022-11-03T06:24:32;101075.48;;;5.42;80.24
75852;BME280;64500;52.632;20.656;2022-11-03T06:26:59;101071.77;;;5.61;80.32
75852;BME280;64500;52.632;20.656;2022-11-03T06:29:29;101071.89;;;5.79;80.29
75852;BME280;64500;52.632;20.656;2022-11-03T06:31:58;101069.75;;;5.96;80.63
75852;BME280;64500;52.632;20.656;2022-11-03T06:34:49;101072.47;;;6.15;80.67
75852;BME280;64500;52.632;20.656;2022-11-03T06:37:26;101078.01;;;6.35;80.65
75852;BME280;64500;52.632;20.656;2022-11-03T06:39:58;101085.45;;;6.51;80.74
75852;BME280;64500;52.632;20.656;2022-11-03T06:42:28;101085.69;;;6.70;80.86
75852;BME280;64500;52.632;20.656;2022-11-03T06:44:57;101088.36;;;6.86;80.96
75852;BME280;64500;52.632;20.656;2022-11-03T06:47:26;101090.34;;;7.01;80.88
75852;BME280;64500;52.632;20.656;2022-11-03T06:50:00;101090.52;;;7.13;80.94
75852;BME280;64500;52.632;20.656;2022-11-03T06:52:29;101091.60;;;7.32;81.02
75852;BME280;64500;52.632;20.656;2022-11-03T06:57:50;101086.14;;;7.57;80.90
75852;BME280;64500;52.632;20.656;2022-11-03T07:00:23;101088.74;;;7.79;81.44
75852;BME280;64500;52.632;20.656;2022-11-03T07:03:04;101092.92;;;8.02;81.56
75852;BME280;64500;52.632;20.656;2022-11-03T07:05:33;101089.19;;;8.20;81.37
75852;BME280;64500;52.632;20.656;2022-11-03T07:08:09;101089.85;;;8.33;80.95
75852;BME280;64500;52.632;20.656;2022-11-03T07:10:39;101091.05;;;8.48;81.03
75852;BME280;64500;52.632;20.656;2022-11-03T07:13:12;101091.69;;;8.64;81.12
75852;BME280;64500;52.632;20.656;2022-11-03T07:15:41;101093.72;;;8.82;81.09
75852;BME280;64500;52.632;20.656;2022-11-03T07:18:20;101094.69;;;8.95;80.68
75852;BME280;64500;52.632;20.656;2022-11-03T07:20:49;101094.92;;;9.12;80.61
75852;BME280;64500;52.632;20.656;2022-11-03T07:23:20;101089.54;;;9.26;80.31
75852;BME280;64500;52.632;20.656;2022-11-03T07:25:52;101089.16;;;9.31;79.48
75852;BME280;64500;52.632;20.656;2022-11-03T07:28:23;101087.52;;;9.35;79.27
75852;BME280;64500;52.632;20.656;2022-11-03T07:30:50;101086.62;;;9.38;78.88
75852;BME280;64500;52.632;20.656;2022-11-03T07:33:23;101085.75;;;9.37;78.27
75852;BME280;64500;52.632;20.656;2022-11-03T07:35:52;101083.64;;;9.35;78.35
75852;BME280;64500;52.632;20.656;2022-11-03T07:38:23;101083.40;;;9.44;78.34
75852;BME280;64500;52.632;20.656;2022-11-03T07:40:52;101081.60;;;9.47;78.29
75852;BME280;64500;52.632;20.656;2022-11-03T07:43:30;101077.67;;;9.51;78.10
75852;BME280;64500;52.632;20.656;2022-11-03T07:46:00;101075.55;;;9.52;78.15
75852;BME280;64500;52.632;20.656;2022-11-03T07:48:45;101078.87;;;9.57;77.93
75852;BME280;64500;52.632;20.656;2022-11-03T07:54:01;101072.06;;;9.68;77.63
75852;BME280;64500;52.632;20.656;2022-11-03T07:56:35;101074.48;;;9.72;77.86
75852;BME280;64500;52.632;20.656;2022-11-03T07:59:10;101072.86;;;9.76;77.44
75852;BME280;64500;52.632;20.656;2022-11-03T08:01:50;101073.51;;;9.82;77.27
75852;BME280;64500;52.632;20.656;2022-11-03T08:04:29;101073.89;;;9.80;76.65
75852;BME280;64500;52.632;20.656;2022-11-03T08:06:56;101070.55;;;9.79;76.99
75852;BME280;64500;52.632;20.656;2022-11-03T08:09:24;101071.41;;;9.81;76.91
75852;BME280;64500;52.632;20.656;2022-11-03T08:11:50;101066.91;;;9.89;77.10
75852;BME280;64500;52.632;20.656;2022-11-03T08:14:17;101066.61;;;10.01;77.30
75852;BME280;64500;52.632;20.656;2022-11-03T08:16:45;101066.52;;;10.10;76.86
75852;BME280;64500;52.632;20.656;2022-11-03T08:19:11;101062.04;;;10.14;76.51
75852;BME280;64500;52.632;20.656;2022-11-03T08:21:38;101058.34;;;10.13;76.48
75852;BME280;64500;52.632;20.656;2022-11-03T08:24:05;101060.09;;;10.14;75.98
75852;BME280;64500;52.632;20.656;2022-11-03T08:26:32;101060.77;;;10.17;76.23
75852;BME280;64500;52.632;20.656;2022-11-03T08:28:59;101058.92;;;10.25;76.35
75852;BME280;64500;52.632;20.656;2022-11-03T08:31:26;101055.17;;;10.31;75.94
75852;BME280;64500;52.632;20.656;2022-11-03T08:33:53;101057.46;;;10.31;75.56
75852;BME280;64500;52.632;20.656;2022-11-03T08:36:20;101054.10;;;10.31;75.51
75852;BME280;64500;52.632;20.656;2022-11-03T08:38:47;101056.86;;;10.37;75.95
75852;BME280;64500;52.632;20.656;2022-11-03T08:41:14;101060.96;;;10.48;75.86
75852;BME280;64500;52.632;20.656;2022-11-03T08:43:41;101062.48;;;10.52;75.53
75852;BME280;64500;52.632;20.656;2022-11-03T08:46:08;101062.17;;;10.62;75.73
75852;BME280;64500;52.632;20.656;2022-11-03T08:48:34;101064.23;;;10.68;75.25
75852;BME280;64500;52.632;20.656;2022-11-03T08:51:01;101064.10;;;10.65;74.90
75852;BME280;64500;52.632;20.656;2022-11-03T08:53:28;101062.19;;;10.61;74.84
75852;BME280;64500;52.632;20.656;2022-11-03T08:55:55;101057.90;;;10.64;75.07
75852;BME280;64500;52.632;20.656;2022-11-03T08:58:22;101055.29;;;10.75;75.23
75852;BME280;64500;52.632;20.656;2022-11-03T09:00:49;101057.44;;;10.84;75.16
75852;BME280;64500;52.632;20.656;2022-11-03T09:03:16;101059.42;;;10.95;75.20
75852;BME280;64500;52.632;20.656;2022-11-03T09:05:43;101054.40;;;11.10;75.75
75852;BME280;64500;52.632;20.656;2022-11-03T09:08:10;101051.02;;;11.23;75.25
75852;BME280;64500;52.632;20.656;2022-11-03T09:10:36;101054.08;;;11.30;75.13
75852;BME280;64500;52.632;20.656;2022-11-03T09:13:04;101051.89;;;11.35;74.68
75852;BME280;64500;52.632;20.656;2022-11-03T09:15:31;101047.69;;;11.43;74.80
75852;BME280;64500;52.632;20.656;2022-11-03T09:17:58;101047.46;;;11.55;74.72
75852;BME280;64500;52.632;20.656;2022-11-03T09:20:25;101046.71;;;11.58;74.26
75852;BME280;64500;52.632;20.656;2022-11-03T09:22:52;101048.01;;;11.64;74.51
75852;BME280;64500;52.632;20.656;2022-11-03T09:25:19;101046.69;;;11.69;74.29
75852;BME280;64500;52.632;20.656;2022-11-03T09:27:46;101042.02;;;11.72;74.04
75852;BME280;64500;52.632;20.656;2022-11-03T09:30:13;101039.52;;;11.74;74.05
75852;BME280;64500;52.632;20.656;2022-11-03T09:32:40;101036.29;;;11.87;74.41
75852;BME280;64500;52.632;20.656;2022-11-03T09:35:07;101036.77;;;11.99;74.23
75852;BME280;64500;52.632;20.656;2022-11-03T09:37:37;101034.83;;;12.07;74.05
75852;BME280;64500;52.632;20.656;2022-11-03T09:40:04;101027.67;;;12.11;73.74
75852;BME280;64500;52.632;20.656;2022-11-03T09:42:32;101025.16;;;12.21;73.89
75852;BME280;64500;52.632;20.656;2022-11-03T09:45:00;101026.51;;;12.25;73.60
75852;BME280;64500;52.632;20.656;2022-11-03T09:47:36;101027.02;;;12.26;73.35
75852;BME280;64500;52.632;20.656;2022-11-03T09:50:06;101026.65;;;12.26;73.12
75852;BME280;64500;52.632;20.656;2022-11-03T09:52:37;101024.40;;;12.24;72.60
75852;BME280;64500;52.632;20.656;2022-11-03T09:55:12;101019.41;;;12.25;72.84
75852;BME280;64500;52.632;20.656;2022-11-03T09:57:40;101017.97;;;12.35;73.03
75852;BME280;64500;52.632;20.656;2022-11-03T10:00:28;101022.41;;;12.42;72.71
75852;BME280;64500;52.632;20.656;2022-11-03T10:02:55;101020.23;;;12.44;72.72
75852;BME280;64500;52.632;20.656;2022-11-03T10:05:25;101014.89;;;12.46;72.37
75852;BME280;64500;52.632;20.656;2022-11-03T10:07:59;101011.91;;;12.44;72.20
75852;BME280;64500;52.632;20.656;2022-11-03T10:10:28;101014.52;;;12.46;72.14
75852;BME280;64500;52.632;20.656;2022-11-03T10:12:58;101013.59;;;12.56;72.30
75852;BME280;64500;52.632;20.656;2022-11-03T10:15:25;101012.10;;;12.59;71.65
75852;BME280;64500;52.632;20.656;2022-11-03T10:17:53;101014.67;;;12.56;71.53
75852;BME280;64500;52.632;20.656;2022-11-03T10:20:21;101015.54;;;12.56;71.50
75852;BME280;64500;52.632;20.656;2022-11-03T10:22:52;101013.04;;;12.57;71.46
75852;BME280;64500;52.632;20.656;2022-11-03T10:25:36;101014.07;;;12.59;71.48
75852;BME280;64500;52.632;20.656;2022-11-03T10:33:33;101009.75;;;12.61;70.96
75852;BME280;64500;52.632;20.656;2022-11-03T10:36:21;101008.47;;;12.63;71.08
75852;BME280;64500;52.632;20.656;2022-11-03T10:38:48;101005.88;;;12.69;71.07
75852;BME280;64500;52.632;20.656;2022-11-03T10:41:27;101001.69;;;12.73;71.31
75852;BME280;64500;52.632;20.656;2022-11-03T10:44:05;101000.98;;;12.80;71.00
75852;BME280;64500;52.632;20.656;2022-11-03T10:46:58;100996.03;;;12.80;70.89
75852;BME280;64500;52.632;20.656;2022-11-03T10:49:30;100989.70;;;12.77;70.59
75852;BME280;64500;52.632;20.656;2022-11-03T10:54:42;100990.88;;;12.80;70.47
75852;BME280;64500;52.632;20.656;2022-11-03T10:57:09;100993.02;;;12.79;70.52
75852;BME280;64500;52.632;20.656;2022-11-03T10:59:37;100989.02;;;12.83;70.48
75852;BME280;64500;52.632;20.656;2022-11-03T11:02:19;100990.51;;;12.88;70.58
75852;BME280;64500;52.632;20.656;2022-11-03T11:04:47;100986.36;;;12.91;70.49
75852;BME280;64500;52.632;20.656;2022-11-03T11:07:20;100983.20;;;12.96;70.52
75852;BME280;64500;52.632;20.656;2022-11-03T11:09:51;100974.80;;;12.99;70.12
75852;BME280;64500;52.632;20.656;2022-11-03T11:12:21;100970.84;;;12.94;69.36
75852;BME280;64500;52.632;20.656;2022-11-03T11:14:57;100969.38;;;12.88;69.18
75852;BME280;64500;52.632;20.656;2022-11-03T11:20:49;100961.40;;;12.89;69.49
75852;BME280;64500;52.632;20.656;2022-11-03T11:28:59;100956.12;;;12.73;68.56
75852;BME280;64500;52.632;20.656;2022-11-03T11:31:41;100955.33;;;12.69;68.56
75852;BME280;64500;52.632;20.656;2022-11-03T11:36:36;100947.79;;;12.56;67.62
75852;BME280;64500;52.632;20.656;2022-11-03T11:39:09;100945.50;;;12.49;67.41
75852;BME280;64500;52.632;20.656;2022-11-03T11:42:05;100943.88;;;12.42;67.00
75852;BME280;64500;52.632;20.656;2022-11-03T11:52:43;100935.30;;;12.22;67.19
75852;BME280;64500;52.632;20.656;2022-11-03T11:57:59;100925.25;;;12.19;67.44
75852;BME280;64500;52.632;20.656;2022-11-03T12:00:30;100923.59;;;12.22;67.63
75852;BME280;64500;52.632;20.656;2022-11-03T12:02:58;100919.09;;;12.25;67.75
75852;BME280;64500;52.632;20.656;2022-11-03T12:05:31;100922.70;;;12.30;67.74
75852;BME280;64500;52.632;20.656;2022-11-03T12:07:59;100923.21;;;12.31;67.56
75852;BME280;64500;52.632;20.656;2022-11-03T12:10:28;100921.09;;;12.31;67.43
75852;BME280;64500;52.632;20.656;2022-11-03T12:12:58;100919.52;;;12.30;67.46
75852;BME280;64500;52.632;20.656;2022-11-03T12:15:56;100917.48;;;12.33;67.56
75852;BME280;64500;52.632;20.656;2022-11-03T12:20:56;100913.96;;;12.40;67.47
75852;BME280;64500;52.632;20.656;2022-11-03T12:26:03;100909.61;;;12.44;66.97
75852;BME280;64500;52.632;20.656;2022-11-03T12:28:34;100907.79;;;12.46;67.14
75852;BME280;64500;52.632;20.656;2022-11-03T12:31:02;100908.53;;;12.53;67.37
75852;BME280;64500;52.632;20.656;2022-11-03T12:33:29;100907.90;;;12.56;67.35
75852;BME280;64500;52.632;20.656;2022-11-03T12:35:56;100907.13;;;12.59;67.21
75852;BME280;64500;52.632;20.656;2022-11-03T12:38:23;100905.34;;;12.60;67.11
75852;BME280;64500;52.632;20.656;2022-11-03T12:40:50;100901.36;;;12.63;67.30
75852;BME280;64500;52.632;20.656;2022-11-03T12:43:18;100901.41;;;12.69;67.39
75852;BME280;64500;52.632;20.656;2022-11-03T12:45:45;100892.21;;;12.75;67.37
75852;BME280;64500;52.632;20.656;2022-11-03T12:48:12;100890.70;;;12.79;67.14
75852;BME280;64500;52.632;20.656;2022-11-03T12:50:40;100892.23;;;12.81;67.06
75852;BME280;64500;52.632;20.656;2022-11-03T12:53:07;100891.90;;;12.80;66.73
75852;BME280;64500;52.632;20.656;2022-11-03T12:55:34;100890.52;;;12.79;66.64
75852;BME280;64500;52.632;20.656;2022-11-03T12:58:01;100886.20;;;12.80;66.71
75852;BME280;64500;52.632;20.656;2022-11-03T13:00:28;100885.47;;;12.82;66.97
75852;BME280;64500;52.632;20.656;2022-11-03T13:02:55;100883.13;;;12.83;66.87
75852;BME280;64500;52.632;20.656;2022-11-03T13:05:22;100881.25;;;12.87;67.09
75852;BME280;64500;52.632;20.656;2022-11-03T13:07:50;100882.60;;;12.89;66.76
75852;BME280;64500;52.632;20.656;2022-11-03T13:10:17;100886.63;;;12.92;66.78
75852;BME280;64500;52.632;20.656;2022-11-03T13:12:44;100883.06;;;12.92;66.23
75852;BME280;64500;52.632;20.656;2022-11-03T13:15:12;100876.76;;;12.89;66.25
75852;BME280;64500;52.632;20.656;2022-11-03T13:17:39;100878.15;;;12.90;66.40
75852;BME280;64500;52.632;20.656;2022-11-03T13:20:06;100873.10;;;12.93;66.36
75852;BME280;64500;52.632;20.656;2022-11-03T13:22:34;100874.11;;;12.95;66.32
75852;BME280;64500;52.632;20.656;2022-11-03T13:25:01;100873.56;;;12.96;66.19
75852;BME280;64500;52.632;20.656;2022-11-03T13:27:28;100869.71;;;12.94;65.88
75852;BME280;64500;52.632;20.656;2022-11-03T13:29:55;100868.00;;;12.92;65.74
75852;BME280;64500;52.632;20.656;2022-11-03T13:32:22;100866.65;;;12.89;65.76
75852;BME280;64500;52.632;20.656;2022-11-03T13:34:48;100868.23;;;12.90;65.78
75852;BME280;64500;52.632;20.656;2022-11-03T13:37:15;100867.31;;;12.90;65.80
75852;BME280;64500;52.632;20.656;2022-11-03T13:39:42;100868.01;;;12.91;65.54
75852;BME280;64500;52.632;20.656;2022-11-03T13:42:09;100862.77;;;12.88;65.41
75852;BME280;64500;52.632;20.656;2022-11-03T13:44:36;100861.36;;;12.88;65.49
75852;BME280;64500;52.632;20.656;2022-11-03T13:47:03;100857.42;;;12.89;65.65
75852;BME280;64500;52.632;20.656;2022-11-03T13:49:30;100854.89;;;12.91;65.64
75852;BME280;64500;52.632;20.656;2022-11-03T13:51:57;100854.34;;;12.92;65.18
75852;BME280;64500;52.632;20.656;2022-11-03T13:54:24;100852.06;;;12.90;65.05
75852;BME280;64500;52.632;20.656;2022-11-03T13:56:51;100847.98;;;12.90;65.08
75852;BME280;64500;52.632;20.656;2022-11-03T13:59:17;100845.83;;;12.92;65.28
75852;BME280;64500;52.632;20.656;2022-11-03T14:01:44;100844.66;;;12.95;65.51
75852;BME280;64500;52.632;20.656;2022-11-03T14:04:11;100840.74;;;12.95;64.83
75852;BME280;64500;52.632;20.656;2022-11-03T14:06:38;100839.66;;;12.89;64.81